Time;durP1;ratioP1;P1;durP2;ratioP2;P2;SDS_P1;SDS_P2;PMS_P1;PMS_P2;Temp;Humidity;BMP_temperature;BMP_pressure;BME280_temperature;BME280_humidity;BME280_pressure;Samples;Min_cycle;Max_cycle;Signal;HPM_P1;HPM_P2
2023/12/12 00:00:19;;;;;;;1.15;0.47;;;10.80;99.90;;;;;;5026152;28;20041;-69
2023/12/12 00:02:45;;;;;;;4.45;0.80;;;10.90;99.90;;;;;;5013924;28;20040;-70
2023/12/12 00:05:13;;;;;;;0.52;0.22;;;10.90;99.90;;;;;;5023570;28;20037;-70
2023/12/12 00:07:39;;;;;;;4.75;1.15;;;10.90;99.90;;;;;;5014104;28;20575;-70
2023/12/12 00:10:05;;;;;;;1.10;0.40;;;11.00;99.90;;;;;;5031378;28;20033;-70
2023/12/12 00:12:31;;;;;;;2.35;0.75;;;11.00;99.90;;;;;;5011221;28;20666;-69
2023/12/12 00:14:57;;;;;;;1.48;0.73;;;11.00;99.90;;;;;;5026424;28;20111;-69
2023/12/12 00:17:23;;;;;;;2.63;1.40;;;11.00;99.90;;;;;;5015137;28;20033;-69
2023/12/12 00:19:48;;;;;;;4.90;0.98;;;11.00;99.90;;;;;;5025188;28;20021;-70
2023/12/12 00:22:14;;;;;;;2.88;0.28;;;11.10;99.90;;;;;;5016084;28;20037;-70
2023/12/12 00:24:40;;;;;;;6.28;1.55;;;11.10;99.90;;;;;;5023132;28;20067;-70
2023/12/12 00:27:05;;;;;;;2.85;0.50;;;11.10;99.90;;;;;;5026109;28;21567;-69
2023/12/12 00:29:35;;;;;;;1.27;0.73;;;11.20;99.90;;;;;;5018762;28;20033;-69
2023/12/12 00:32:01;;;;;;;6.88;0.50;;;11.10;99.90;;;;;;5021282;28;20033;-69
2023/12/12 00:34:27;;;;;;;6.13;0.80;;;11.00;99.90;;;;;;5016265;28;20021;-70
2023/12/12 00:36:52;;;;;;;3.22;1.05;;;10.90;99.90;;;;;;5026494;28;20424;-70
2023/12/12 00:39:18;;;;;;;2.80;1.15;;;10.90;99.90;;;;;;5014318;28;20129;-69
2023/12/12 00:41:44;;;;;;;6.95;1.33;;;10.90;99.90;;;;;;5033472;28;20036;-70
2023/12/12 00:44:09;;;;;;;1.90;1.08;;;10.90;99.90;;;;;;5022782;28;20029;-70
2023/12/12 00:46:35;;;;;;;1.92;0.35;;;10.80;99.90;;;;;;5056076;28;20036;-69
2023/12/12 00:49:01;;;;;;;4.22;0.63;;;10.90;99.90;;;;;;5028615;28;20083;-70
2023/12/12 00:51:27;;;;;;;2.70;0.77;;;10.90;99.90;;;;;;5024792;28;20098;-70
2023/12/12 00:53:52;;;;;;;2.58;1.00;;;11.00;99.90;;;;;;5014721;28;20132;-69
2023/12/12 00:56:18;;;;;;;4.80;1.10;;;11.00;99.90;;;;;;5028796;28;20041;-70
2023/12/12 00:58:43;;;;;;;8.48;2.78;;;11.10;99.90;;;;;;5013052;28;20033;-69
2023/12/12 01:01:12;;;;;;;3.10;1.20;;;11.10;99.90;;;;;;5029636;28;20029;-70
2023/12/12 01:03:38;;;;;;;4.80;1.30;;;11.10;99.90;;;;;;5013634;28;20029;-70
2023/12/12 01:06:04;;;;;;;5.07;1.48;;;11.20;99.90;;;;;;5026364;28;20025;-70
2023/12/12 01:08:29;;;;;;;1.85;0.73;;;11.20;99.90;;;;;;5020880;28;20033;-70
2023/12/12 01:10:55;;;;;;;3.55;1.58;;;11.20;99.90;;;;;;5019279;28;20497;-70
2023/12/12 01:13:21;;;;;;;1.05;0.95;;;11.20;99.90;;;;;;5027671;28;20050;-70
2023/12/12 01:15:46;;;;;;;1.40;0.90;;;11.20;99.90;;;;;;5016807;28;20496;-69
2023/12/12 01:18:12;;;;;;;19.00;2.30;;;11.20;99.90;;;;;;5024559;28;20061;-69
2023/12/12 01:20:38;;;;;;;8.43;1.75;;;11.20;99.90;;;;;;5016072;28;20029;-70
2023/12/12 01:23:04;;;;;;;2.80;1.25;;;;;;;;;;5029019;28;20090;-69
2023/12/12 01:25:30;;;;;;;1.42;0.93;;;11.40;99.90;;;;;;5013564;28;20052;-70
2023/12/12 01:27:55;;;;;;;4.68;1.15;;;11.30;99.90;;;;;;5026903;28;20060;-69
2023/12/12 01:30:21;;;;;;;1.73;1.50;;;11.30;99.90;;;;;;5012463;28;20017;-70
2023/12/12 01:32:47;;;;;;;4.68;1.45;;;11.30;99.90;;;;;;5022542;28;20034;-70
2023/12/12 01:35:12;;;;;;;4.63;1.42;;;11.30;99.90;;;;;;5015177;28;20489;-70
2023/12/12 01:37:38;;;;;;;6.13;1.60;;;11.30;99.90;;;;;;5021992;28;20029;-70
2023/12/12 01:40:04;;;;;;;3.30;1.08;;;11.30;99.90;;;;;;5016103;28;20921;-69
2023/12/12 01:42:30;;;;;;;2.63;1.38;;;11.30;99.90;;;;;;5030973;28;20033;-69
2023/12/12 01:44:56;;;;;;;3.15;1.10;;;11.20;99.90;;;;;;5016367;28;20068;-69
2023/12/12 01:47:22;;;;;;;4.05;1.85;;;11.30;99.90;;;;;;5028932;28;20083;-70
2023/12/12 01:49:48;;;;;;;3.38;1.23;;;11.40;99.90;;;;;;5028880;28;20029;-69
2023/12/12 01:52:15;;;;;;;10.60;1.65;;;11.30;99.90;;;;;;5014653;28;20025;-70
2023/12/12 01:54:47;;;;;;;6.13;1.83;;;11.30;99.90;;;;;;5032345;28;20148;-70
2023/12/12 01:57:17;;;;;;;9.18;2.08;;;11.30;99.90;;;;;;5015324;28;20033;-70
2023/12/12 01:59:45;;;;;;;1.75;1.15;;;11.30;99.90;;;;;;5028616;28;20427;-70
2023/12/12 02:02:11;;;;;;;2.33;1.08;;;11.20;99.90;;;;;;5018232;28;20103;-69
2023/12/12 02:04:38;;;;;;;4.55;2.13;;;11.20;99.90;;;;;;5028128;28;20120;-70
2023/12/12 02:07:04;;;;;;;6.82;1.33;;;11.10;99.90;;;;;;5018762;28;20186;-69
2023/12/12 02:09:30;;;;;;;1.88;0.90;;;11.20;99.90;;;;;;5030550;28;20051;-70
2023/12/12 02:11:56;;;;;;;2.92;1.92;;;11.20;99.90;;;;;;5015297;28;20057;-69
2023/12/12 02:14:22;;;;;;;4.88;1.15;;;11.20;99.90;;;;;;5033265;28;20028;-69
2023/12/12 02:16:48;;;;;;;8.27;1.08;;;11.20;99.90;;;;;;5019016;28;20029;-69
2023/12/12 02:19:15;;;;;;;7.05;1.02;;;11.20;99.90;;;;;;5026754;28;20075;-69
2023/12/12 02:21:41;;;;;;;6.35;1.15;;;11.20;99.90;;;;;;5018031;28;20033;-70
2023/12/12 02:24:07;;;;;;;10.38;2.10;;;11.20;99.90;;;;;;5027253;28;20061;-69
2023/12/12 02:26:32;;;;;;;4.22;1.00;;;11.20;99.90;;;;;;5018136;28;20053;-69
2023/12/12 02:28:58;;;;;;;10.35;1.25;;;11.20;99.90;;;;;;5025830;28;20051;-69
2023/12/12 02:31:24;;;;;;;1.08;0.73;;;11.30;99.90;;;;;;5021640;28;20033;-69
2023/12/12 02:33:50;;;;;;;6.80;2.38;;;11.30;99.90;;;;;;5029115;28;20037;-69
2023/12/12 02:36:15;;;;;;;5.22;1.48;;;11.30;99.90;;;;;;5030869;28;20104;-69
2023/12/12 02:38:41;;;;;;;1.42;1.02;;;11.30;99.90;;;;;;5013349;28;20784;-69
2023/12/12 02:41:08;;;;;;;10.98;0.65;;;11.20;99.90;;;;;;5031629;28;20108;-69
2023/12/12 02:43:34;;;;;;;18.40;1.30;;;11.10;99.90;;;;;;5016986;28;20041;-70
2023/12/12 02:46:00;;;;;;;1.88;1.00;;;11.10;99.90;;;;;;5025706;28;20037;-70
2023/12/12 02:48:26;;;;;;;5.72;1.42;;;11.10;99.90;;;;;;5020315;28;20049;-70
2023/12/12 02:50:52;;;;;;;5.80;1.08;;;11.10;99.90;;;;;;5030102;28;20029;-70
2023/12/12 02:53:18;;;;;;;2.50;1.88;;;11.00;99.90;;;;;;5016661;28;20037;-71
2023/12/12 02:55:43;;;;;;;1.98;1.73;;;11.00;99.90;;;;;;5031137;28;20119;-70
2023/12/12 02:58:09;;;;;;;9.20;1.20;;;11.10;99.90;;;;;;5012962;28;20082;-71
2023/12/12 03:00:35;;;;;;;7.60;1.98;;;11.10;99.90;;;;;;5027129;28;20041;-70
2023/12/12 03:03:00;;;;;;;2.45;1.40;;;11.20;99.90;;;;;;5014867;28;20505;-70
2023/12/12 03:05:26;;;;;;;16.10;2.15;;;11.20;99.90;;;;;;5021783;28;20029;-70
2023/12/12 03:07:52;;;;;;;3.47;0.95;;;11.20;99.90;;;;;;5015877;28;20091;-69
2023/12/12 03:10:17;;;;;;;1.95;0.80;;;11.20;99.90;;;;;;5026706;28;20515;-68
2023/12/12 03:12:43;;;;;;;19.60;1.48;;;11.20;99.90;;;;;;5018406;28;20035;-69
2023/12/12 03:15:09;;;;;;;2.17;0.63;;;11.20;99.90;;;;;;5029934;28;20024;-69
2023/12/12 03:17:34;;;;;;;3.13;1.27;;;11.20;99.90;;;;;;5028197;28;20124;-70
2023/12/12 03:20:00;;;;;;;2.53;1.15;;;11.20;99.90;;;;;;5014553;28;20033;-69
2023/12/12 03:22:26;;;;;;;0.82;0.82;;;11.20;99.90;;;;;;5031708;28;20041;-69
2023/12/12 03:24:52;;;;;;;2.67;0.80;;;11.20;99.90;;;;;;5018940;28;20025;-69
2023/12/12 03:27:18;;;;;;;8.20;1.90;;;11.20;99.90;;;;;;5028358;28;20071;-69
2023/12/12 03:29:44;;;;;;;2.95;0.98;;;11.20;99.90;;;;;;5018256;28;20627;-68
2023/12/12 03:32:09;;;;;;;5.65;0.90;;;11.20;99.90;;;;;;5027251;28;20570;-70
2023/12/12 03:34:35;;;;;;;3.03;0.93;;;11.20;99.90;;;;;;5019704;28;20040;-69
2023/12/12 03:37:00;;;;;;;6.38;1.02;;;11.20;99.90;;;;;;5032089;28;20040;-69
2023/12/12 03:39:26;;;;;;;4.88;1.10;;;11.20;99.90;;;;;;5017168;28;20025;-69
2023/12/12 03:41:52;;;;;;;0.77;0.70;;;11.20;99.90;;;;;;5034619;28;20029;-69
2023/12/12 03:44:18;;;;;;;3.20;1.35;;;11.20;99.90;;;;;;5037739;28;20056;-69
2023/12/12 03:46:44;;;;;;;11.02;1.02;;;11.30;99.90;;;;;;5029780;28;20126;-70
2023/12/12 03:49:09;;;;;;;4.20;0.57;;;11.20;99.90;;;;;;5016655;28;20021;-69
2023/12/12 03:51:35;;;;;;;6.45;0.68;;;11.20;99.90;;;;;;5026485;28;20033;-70
2023/12/12 03:54:01;;;;;;;2.17;0.35;;;11.20;99.90;;;;;;5022842;28;20033;-70
2023/12/12 03:56:26;;;;;;;3.08;0.52;;;11.30;99.90;;;;;;5024204;28;20033;-70
2023/12/12 03:58:52;;;;;;;4.05;1.17;;;11.30;99.90;;;;;;5026256;28;20037;-69
2023/12/12 04:01:17;;;;;;;4.22;1.15;;;11.30;99.90;;;;;;5014385;28;20055;-69
2023/12/12 04:03:43;;;;;;;4.10;1.15;;;11.30;99.90;;;;;;5031145;28;20638;-71
2023/12/12 04:06:09;;;;;;;1.38;0.65;;;11.40;99.90;;;;;;5010351;28;20037;-69
2023/12/12 04:08:35;;;;;;;3.15;0.65;;;11.40;99.90;;;;;;5025707;28;20059;-70
2023/12/12 04:11:01;;;;;;;2.35;0.57;;;11.50;99.90;;;;;;5016618;28;20033;-68
2023/12/12 04:13:26;;;;;;;3.42;1.20;;;11.40;99.90;;;;;;5025657;28;20025;-69
2023/12/12 04:15:52;;;;;;;2.95;1.48;;;11.40;99.90;;;;;;5020948;28;20104;-69
2023/12/12 04:18:18;;;;;;;1.08;0.43;;;11.40;99.90;;;;;;5025615;28;20170;-71
2023/12/12 04:20:44;;;;;;;4.05;0.70;;;11.40;99.90;;;;;;5016208;28;20378;-73
2023/12/12 04:23:09;;;;;;;3.45;0.98;;;11.50;99.90;;;;;;5028774;28;20037;-73
2023/12/12 04:25:35;;;;;;;3.30;1.88;;;11.50;99.90;;;;;;5017233;28;20117;-71
2023/12/12 04:28:01;;;;;;;10.68;0.88;;;11.60;99.90;;;;;;5025731;28;22067;-71
2023/12/12 04:30:26;;;;;;;2.08;0.90;;;11.50;99.90;;;;;;5018444;28;20030;-72
2023/12/12 04:32:52;;;;;;;7.22;0.73;;;11.60;99.90;;;;;;5022952;28;20110;-72
2023/12/12 04:35:19;;;;;;;11.20;0.75;;;11.60;99.90;;;;;;5024476;28;20041;-71
2023/12/12 04:37:45;;;;;;;5.40;0.95;;;11.60;99.90;;;;;;5020664;28;20041;-72
2023/12/12 04:40:12;;;;;;;3.40;0.40;;;11.60;99.90;;;;;;5025424;28;20056;-72
2023/12/12 04:42:38;;;;;;;17.98;1.02;;;11.60;99.90;;;;;;5014350;28;20041;-71
2023/12/12 04:45:04;;;;;;;4.50;0.90;;;11.50;99.90;;;;;;5025292;28;20083;-71
2023/12/12 04:47:30;;;;;;;1.92;0.82;;;11.50;99.90;;;;;;5014070;28;20048;-72
2023/12/12 04:49:56;;;;;;;4.53;1.00;;;11.50;99.90;;;;;;5029396;28;20033;-71
2023/12/12 04:52:22;;;;;;;2.90;1.15;;;11.50;99.90;;;;;;5011310;28;20084;-69
2023/12/12 04:54:47;;;;;;;4.78;0.60;;;11.50;99.90;;;;;;5029594;28;20029;-70
2023/12/12 04:57:13;;;;;;;1.33;0.77;;;11.50;99.90;;;;;;5019648;28;20028;-70
2023/12/12 04:59:39;;;;;;;3.97;1.00;;;11.60;99.90;;;;;;5024982;28;20029;-70
2023/12/12 05:02:04;;;;;;;7.13;1.73;;;11.60;99.90;;;;;;5017367;28;20033;-71
2023/12/12 05:04:30;;;;;;;7.78;1.27;;;11.60;99.90;;;;;;5013870;28;20087;-70
2023/12/12 05:06:56;;;;;;;16.38;3.08;;;11.70;99.90;;;;;;5010602;28;20044;-72
2023/12/12 05:09:21;;;;;;;3.80;0.82;;;11.70;99.90;;;;;;5027489;28;20116;-72
2023/12/12 05:11:48;;;;;;;4.25;0.50;;;11.80;99.90;;;;;;5012240;28;20086;-72
2023/12/12 05:14:14;;;;;;;5.50;1.17;;;11.70;99.90;;;;;;5015348;28;20067;-72
2023/12/12 05:16:40;;;;;;;7.28;0.88;;;11.70;99.90;;;;;;5022484;28;20073;-71
2023/12/12 05:19:05;;;;;;;10.60;1.58;;;11.60;99.90;;;;;;5015844;28;20117;-71
2023/12/12 05:21:31;;;;;;;3.13;1.08;;;11.60;99.90;;;;;;5028933;28;20806;-71
2023/12/12 05:23:57;;;;;;;10.55;1.15;;;11.50;99.90;;;;;;5021324;28;20059;-70
2023/12/12 05:26:22;;;;;;;10.65;0.80;;;11.50;99.90;;;;;;5028882;28;20052;-70
2023/12/12 05:28:48;;;;;;;23.38;2.50;;;11.50;99.90;;;;;;5018656;28;20477;-71
2023/12/12 05:31:14;;;;;;;2.40;1.42;;;11.40;99.90;;;;;;5034709;28;20036;-70
2023/12/12 05:33:40;;;;;;;4.30;1.08;;;11.50;99.90;;;;;;5014626;28;20040;-70
2023/12/12 05:36:07;;;;;;;3.50;0.95;;;11.50;99.90;;;;;;5029968;28;20043;-70
2023/12/12 05:38:33;;;;;;;8.98;1.67;;;11.50;99.90;;;;;;5015728;28;20065;-70
2023/12/12 05:40:59;;;;;;;2.55;1.33;;;11.50;99.90;;;;;;5032805;28;20033;-70
2023/12/12 05:43:24;;;;;;;6.07;1.13;;;11.50;99.90;;;;;;5019725;28;20124;-71
2023/12/12 05:45:50;;;;;;;3.30;1.08;;;11.50;99.90;;;;;;5030915;28;20048;-72
2023/12/12 05:48:16;;;;;;;6.25;1.60;;;11.50;99.90;;;;;;5017672;28;20413;-73
2023/12/12 05:50:42;;;;;;;4.03;1.73;;;11.50;99.90;;;;;;5031369;28;20040;-75
2023/12/12 05:53:07;;;;;;;14.63;1.60;;;11.60;99.90;;;;;;5014339;28;20029;-75
2023/12/12 05:55:33;;;;;;;6.35;1.58;;;11.70;99.90;;;;;;5037474;28;20099;-74
2023/12/12 05:57:59;;;;;;;2.53;1.23;;;11.70;99.90;;;;;;5027557;28;20111;-73
2023/12/12 06:00:27;;;;;;;3.42;0.90;;;11.60;99.90;;;;;;5020342;28;20029;-72
2023/12/12 06:02:54;;;;;;;7.15;1.17;;;11.50;99.90;;;;;;5029506;28;20110;-72
2023/12/12 06:05:20;;;;;;;15.80;1.30;;;11.40;99.90;;;;;;5017123;28;20025;-72
2023/12/12 06:07:45;;;;;;;5.40;1.65;;;11.40;99.90;;;;;;5026490;28;20048;-72
2023/12/12 06:10:11;;;;;;;2.75;0.70;;;11.40;99.90;;;;;;5019320;28;20040;-71
2023/12/12 06:12:37;;;;;;;8.52;1.70;;;11.40;99.90;;;;;;5025002;28;20121;-71
2023/12/12 06:15:07;;;;;;;2.42;0.90;;;11.40;99.90;;;;;;5018443;28;20536;-71
2023/12/12 06:17:34;;;;;;;7.18;1.25;;;11.30;99.90;;;;;;5030540;28;20036;-72
2023/12/12 06:20:00;;;;;;;2.25;0.60;;;11.30;99.90;;;;;;5013270;28;20051;-71
2023/12/12 06:22:25;;;;;;;11.57;1.20;;;11.30;99.90;;;;;;5029176;28;20477;-71
2023/12/12 06:24:51;;;;;;;2.72;1.25;;;11.40;99.90;;;;;;5019853;28;20508;-71
2023/12/12 06:27:17;;;;;;;3.47;0.65;;;11.40;99.90;;;;;;5024683;28;20489;-70
2023/12/12 06:29:42;;;;;;;14.60;2.22;;;11.40;99.90;;;;;;5022228;28;20044;-71
2023/12/12 06:32:08;;;;;;;9.30;1.23;;;11.50;99.90;;;;;;5027030;28;20444;-70
2023/12/12 06:34:34;;;;;;;8.77;1.42;;;11.50;99.90;;;;;;5018705;28;20169;-70
2023/12/12 06:36:59;;;;;;;2.47;0.70;;;11.50;99.90;;;;;;5030797;28;20469;-70
2023/12/12 06:39:25;;;;;;;2.55;0.65;;;11.50;99.90;;;;;;5026206;28;20036;-69
2023/12/12 06:41:51;;;;;;;1.08;0.43;;;11.50;99.90;;;;;;5046748;28;20029;-70
2023/12/12 06:44:16;;;;;;;2.75;0.55;;;11.50;99.90;;;;;;5046611;28;20033;-70
2023/12/12 06:46:42;;;;;;;2.53;0.70;;;11.50;99.90;;;;;;5016954;28;20038;-69
2023/12/12 06:49:07;;;;;;;5.10;1.00;;;11.50;99.90;;;;;;5030314;28;20059;-69
2023/12/12 06:51:33;;;;;;;14.93;1.20;;;11.50;99.90;;;;;;5022212;28;20033;-70
2023/12/12 06:53:59;;;;;;;1.85;0.95;;;11.50;99.90;;;;;;5028726;28;20509;-69
2023/12/12 06:56:25;;;;;;;2.50;0.32;;;11.50;99.90;;;;;;5021852;28;20029;-69
2023/12/12 06:58:51;;;;;;;3.28;0.90;;;11.50;99.90;;;;;;5028384;28;20508;-69
2023/12/12 07:01:17;;;;;;;2.25;0.30;;;11.50;99.90;;;;;;5016398;28;20037;-70
2023/12/12 07:03:43;;;;;;;11.07;2.13;;;11.60;99.90;;;;;;5017368;28;20037;-70
2023/12/12 07:06:09;;;;;;;6.35;0.70;;;11.50;99.90;;;;;;5012770;28;20948;-69
2023/12/12 07:08:35;;;;;;;11.38;1.05;;;11.40;99.90;;;;;;5025105;28;20052;-70
2023/12/12 07:11:01;;;;;;;6.82;1.08;;;11.20;99.90;;;;;;5008496;28;20510;-70
2023/12/12 07:13:27;;;;;;;7.22;0.98;;;11.10;99.90;;;;;;5022676;28;20436;-69
2023/12/12 07:15:53;;;;;;;6.43;0.68;;;11.10;99.90;;;;;;5017718;28;20033;-69
2023/12/12 07:18:19;;;;;;;12.95;0.95;;;11.00;99.90;;;;;;5026626;28;20037;-69
2023/12/12 07:20:45;;;;;;;1.42;0.63;;;11.00;99.90;;;;;;5021401;28;20057;-70
2023/12/12 07:23:11;;;;;;;16.77;1.48;;;11.00;99.90;;;;;;5024164;28;22077;-69
2023/12/12 07:25:38;;;;;;;4.78;0.95;;;11.00;99.90;;;;;;5031062;28;20028;-69
2023/12/12 07:28:04;;;;;;;4.70;1.02;;;10.90;99.90;;;;;;5016443;28;20128;-69
2023/12/12 07:30:29;;;;;;;5.28;1.73;;;10.80;99.90;;;;;;5031622;28;20051;-69
2023/12/12 07:32:56;;;;;;;4.97;1.30;;;10.80;99.90;;;;;;5017792;28;20043;-69
2023/12/12 07:35:21;;;;;;;1.42;0.60;;;10.70;99.90;;;;;;5025847;28;20778;-69
2023/12/12 07:37:47;;;;;;;5.25;0.70;;;10.60;99.90;;;;;;5013837;28;20033;-69
2023/12/12 07:40:13;;;;;;;7.25;0.60;;;10.70;99.90;;;;;;5023630;28;20071;-69
2023/12/12 07:42:39;;;;;;;4.35;1.02;;;10.70;99.90;;;;;;5018037;28;20060;-70
2023/12/12 07:45:06;;;;;;;4.75;0.52;;;10.70;99.90;;;;;;5026803;28;20719;-69
2023/12/12 07:47:33;;;;;;;18.42;3.75;;;10.60;99.90;;;;;;5009906;28;20045;-68
2023/12/12 07:49:59;;;;;;;0.63;0.45;;;10.60;99.90;;;;;;5025756;28;20037;-70
2023/12/12 07:52:25;;;;;;;6.22;1.58;;;10.60;99.90;;;;;;5012612;28;20037;-70
2023/12/12 07:54:51;;;;;;;5.60;0.85;;;10.70;99.90;;;;;;5025676;28;20033;-69
2023/12/12 07:57:17;;;;;;;9.23;0.95;;;10.80;99.90;;;;;;5015734;28;20928;-69
2023/12/12 07:59:43;;;;;;;6.40;0.75;;;10.80;99.90;;;;;;5022565;28;20088;-69
2023/12/12 08:02:09;;;;;;;7.55;0.93;;;11.00;99.90;;;;;;5021313;28;20041;-70
2023/12/12 08:04:35;;;;;;;7.03;1.33;;;11.00;99.90;;;;;;5016192;28;20037;-69
2023/12/12 08:07:01;;;;;;;21.10;2.13;;;11.00;99.90;;;;;;5019247;28;20045;-69
2023/12/12 08:09:29;;;;;;;6.22;1.23;;;11.10;99.90;;;;;;5014563;28;20147;-70
2023/12/12 08:11:55;;;;;;;1.85;0.20;;;11.10;99.90;;;;;;5021964;28;20032;-69
2023/12/12 08:14:21;;;;;;;1.27;0.68;;;11.00;99.90;;;;;;5010769;28;20033;-69
2023/12/12 08:16:47;;;;;;;2.72;1.10;;;11.00;99.90;;;;;;5027598;28;20031;-69
2023/12/12 08:19:13;;;;;;;6.35;1.27;;;11.00;99.90;;;;;;5013727;28;20044;-68
2023/12/12 08:21:40;;;;;;;9.18;0.82;;;10.90;99.90;;;;;;5017108;28;20037;-69
2023/12/12 08:24:06;;;;;;;2.97;0.85;;;10.90;99.90;;;;;;5007299;28;20498;-69
2023/12/12 08:26:48;;;;;;;10.55;0.90;;;10.90;99.90;;;;;;5016204;28;20058;-69
2023/12/12 08:29:14;;;;;;;4.95;0.75;;;10.90;99.90;;;;;;5000980;28;20109;-69
2023/12/12 08:31:40;;;;;;;6.78;0.30;;;10.90;99.90;;;;;;5022506;28;20083;-71
2023/12/12 08:34:06;;;;;;;6.72;0.85;;;11.00;99.90;;;;;;5005193;28;20030;-70
2023/12/12 08:36:32;;;;;;;10.95;1.60;;;11.00;99.90;;;;;;5021720;28;20512;-69
2023/12/12 08:38:59;;;;;;;1.77;0.88;;;10.90;99.90;;;;;;5007406;28;20043;-70
2023/12/12 08:41:28;;;;;;;13.30;2.40;;;10.90;99.90;;;;;;5018173;28;20070;-68
2023/12/12 08:43:55;;;;;;;7.55;1.10;;;10.90;99.90;;;;;;5008846;28;20148;-70
2023/12/12 08:46:26;;;;;;;1.10;0.68;;;10.80;99.90;;;;;;5009708;28;20354;-70
2023/12/12 08:48:53;;;;;;;9.85;1.83;;;10.80;99.90;;;;;;5009646;28;20060;-69
2023/12/12 08:51:19;;;;;;;5.93;1.00;;;10.80;99.90;;;;;;5013749;28;20037;-73
2023/12/12 08:53:44;;;;;;;12.25;1.98;;;10.80;99.90;;;;;;5009584;28;20037;-68
2023/12/12 08:56:14;;;;;;;1.77;0.50;;;10.80;99.90;;;;;;5007889;28;20029;-71
2023/12/12 08:58:40;;;;;;;20.73;1.77;;;10.80;99.90;;;;;;5019619;28;20069;-70
2023/12/12 09:01:06;;;;;;;3.85;1.80;;;10.80;99.90;;;;;;5006790;28;20055;-71
2023/12/12 09:03:32;;;;;;;3.95;1.00;;;10.80;99.90;;;;;;5025315;28;20485;-71
2023/12/12 09:05:57;;;;;;;8.23;1.65;;;10.80;99.90;;;;;;5007664;28;20497;-69
2023/12/12 09:08:23;;;;;;;11.93;1.00;;;10.90;99.90;;;;;;5017331;28;20614;-69
2023/12/12 09:10:49;;;;;;;5.80;0.95;;;11.00;99.90;;;;;;5015455;28;20036;-71
2023/12/12 09:13:14;;;;;;;16.92;1.90;;;11.20;99.90;;;;;;5023087;28;20037;-70
2023/12/12 09:15:40;;;;;;;3.95;0.68;;;11.30;99.90;;;;;;5011600;28;20044;-69
2023/12/12 09:18:05;;;;;;;4.97;1.10;;;11.30;99.90;;;;;;5016312;28;20039;-68
2023/12/12 09:20:31;;;;;;;12.73;1.35;;;11.50;99.90;;;;;;5006482;28;20033;-69
2023/12/12 09:22:57;;;;;;;6.10;1.67;;;11.60;99.90;;;;;;5019108;28;20033;-68
2023/12/12 09:25:22;;;;;;;12.95;0.73;;;11.70;99.90;;;;;;5012633;28;20496;-69
2023/12/12 09:27:49;;;;;;;11.55;0.90;;;11.70;99.90;;;;;;5017744;28;20053;-71
2023/12/12 09:30:15;;;;;;;6.43;1.42;;;11.80;99.90;;;;;;5012853;28;20044;-70
2023/12/12 09:32:40;;;;;;;9.48;0.85;;;11.80;99.90;;;;;;5020709;28;20033;-71
2023/12/12 09:35:06;;;;;;;9.88;1.08;;;11.70;99.90;;;;;;5020013;28;20152;-68
2023/12/12 09:37:32;;;;;;;4.20;0.73;;;11.90;99.90;;;;;;5012850;28;20171;-70
2023/12/12 09:40:00;;;;;;;16.13;1.90;;;12.10;99.90;;;;;;5020170;28;20041;-71
2023/12/12 09:42:29;;;;;;;9.43;1.60;;;12.10;99.90;;;;;;5009436;28;20472;-69
2023/12/12 09:44:58;;;;;;;;;;;12.10;99.90;;;;;;5022914;28;20110;-70
2023/12/12 09:47:27;;;;;;;24.45;2.15;;;12.30;99.90;;;;;;5001194;28;20336;-69
2023/12/12 09:49:55;;;;;;;9.90;1.70;;;12.20;99.90;;;;;;5020393;28;20084;-70
2023/12/12 09:52:23;;;;;;;8.75;1.05;;;12.10;99.90;;;;;;5011357;28;20051;-69
2023/12/12 09:54:49;;;;;;;5.22;0.93;;;12.00;99.90;;;;;;5014681;28;20426;-70
2023/12/12 09:57:18;;;;;;;8.27;1.58;;;11.90;99.90;;;;;;5007315;28;20067;-71
2023/12/12 09:59:46;;;;;;;13.15;2.13;;;12.00;99.90;;;;;;5008701;28;20055;-70
2023/12/12 10:02:19;;;;;;;9.75;1.85;;;11.90;99.90;;;;;;5006290;28;20106;-69
2023/12/12 10:04:45;;;;;;;9.70;1.45;;;11.70;99.90;;;;;;5021759;28;20498;-70
2023/12/12 10:07:17;;;;;;;2.80;0.75;;;11.60;99.90;;;;;;5013854;28;20164;-69
2023/12/12 10:09:43;;;;;;;3.90;1.00;;;11.60;99.90;;;;;;5027257;28;20094;-70
2023/12/12 10:12:09;;;;;;;16.27;1.17;;;11.60;99.90;;;;;;5012541;28;20490;-70
2023/12/12 10:14:36;;;;;;;3.58;1.17;;;11.50;99.90;;;;;;5026999;28;20036;-69
2023/12/12 10:17:04;;;;;;;6.32;0.75;;;11.40;99.90;;;;;;5038874;28;20033;-72
2023/12/12 10:19:30;;;;;;;2.70;1.50;;;11.30;99.90;;;;;;5025879;28;20048;-71
2023/12/12 10:21:58;;;;;;;8.30;1.38;;;11.40;99.90;;;;;;5013077;28;20932;-70
2023/12/12 10:24:25;;;;;;;8.25;1.25;;;11.60;99.90;;;;;;5022015;28;20136;-71
2023/12/12 10:26:51;;;;;;;8.57;1.58;;;11.70;99.90;;;;;;5016550;28;20053;-69
2023/12/12 10:29:19;;;;;;;6.72;0.70;;;11.90;99.90;;;;;;5009762;28;20094;-71
2023/12/12 10:31:47;;;;;;;19.67;1.90;;;12.00;99.90;;;;;;5027045;28;20055;-68
2023/12/12 10:34:17;;;;;;;7.03;1.10;;;12.00;99.90;;;;;;5001194;28;20044;-69
2023/12/12 10:36:46;;;;;;;18.50;2.30;;;12.00;99.90;;;;;;5022008;28;20041;-70
2023/12/12 10:39:13;;;;;;;5.78;1.08;;;11.90;99.90;;;;;;5006550;28;20078;-70
2023/12/12 10:41:39;;;;;;;11.25;1.40;;;11.90;99.90;;;;;;5014913;28;20079;-72
2023/12/12 10:44:06;;;;;;;3.67;2.08;;;11.80;99.90;;;;;;5007481;28;20080;-70
2023/12/12 10:46:36;;;;;;;8.43;1.30;;;11.80;99.90;;;;;;5016373;28;20086;-71
2023/12/12 10:49:02;;;;;;;5.70;1.05;;;11.70;99.90;;;;;;5007366;28;20037;-69
2023/12/12 10:51:28;;;;;;;19.35;3.13;;;11.80;99.90;;;;;;5024072;28;20037;-69
2023/12/12 10:53:55;;;;;;;9.45;1.10;;;11.70;99.90;;;;;;5008571;28;20057;-69
2023/12/12 10:56:21;;;;;;;7.93;1.83;;;11.70;99.90;;;;;;5022249;28;20024;-69
2023/12/12 10:58:48;;;;;;;12.85;1.88;;;11.70;99.90;;;;;;5009728;28;20065;-70
2023/12/12 11:01:15;;;;;;;4.03;1.10;;;11.60;99.90;;;;;;5018862;28;20033;-68
2023/12/12 11:03:41;;;;;;;13.05;2.50;;;11.70;99.90;;;;;;5012182;28;20071;-69
2023/12/12 11:06:09;;;;;;;1.88;0.80;;;11.60;99.90;;;;;;5028003;28;20669;-69
2023/12/12 11:08:35;;;;;;;3.83;0.93;;;11.60;99.90;;;;;;5010715;28;20055;-69
2023/12/12 11:11:06;;;;;;;6.50;1.33;;;11.60;99.90;;;;;;5021638;28;20482;-69
2023/12/12 11:13:34;;;;;;;4.85;1.70;;;11.60;99.90;;;;;;5013557;28;20753;-71
2023/12/12 11:16:04;;;;;;;2.15;0.40;;;11.60;99.90;;;;;;5019589;28;20098;-69
2023/12/12 11:18:31;;;;;;;5.63;0.75;;;11.50;99.90;;;;;;5016729;28;21429;-70
2023/12/12 11:20:56;;;;;;;4.47;0.82;;;11.30;99.90;;;;;;5003988;28;20186;-71
2023/12/12 11:23:42;;;;;;;4.03;1.08;;;11.30;99.90;;;;;;5020802;28;20049;-69
2023/12/12 11:26:10;;;;;;;14.48;0.88;;;11.20;99.90;;;;;;5010248;28;20033;-72
2023/12/12 11:28:37;;;;;;;5.88;0.73;;;11.20;99.90;;;;;;5015728;28;20037;-72
2023/12/12 11:31:02;;;;;;;15.10;1.45;;;11.20;99.90;;;;;;5012026;28;20038;-72
2023/12/12 11:33:29;;;;;;;3.15;0.90;;;11.00;99.90;;;;;;5017488;28;20508;-72
2023/12/12 11:35:55;;;;;;;3.50;0.98;;;11.20;99.90;;;;;;5008724;28;20048;-73
2023/12/12 11:38:30;;;;;;;14.07;2.03;;;11.70;99.90;;;;;;5020160;28;20033;-72
2023/12/12 11:41:14;;;;;;;13.48;2.10;;;11.90;99.90;;;;;;5003140;28;20121;-74
2023/12/12 11:43:41;;;;;;;10.77;1.75;;;12.00;99.90;;;;;;5013886;28;20638;-73
2023/12/12 11:46:22;;;;;;;10.35;0.90;;;12.00;99.90;;;;;;5011788;28;20029;-72
2023/12/12 11:48:48;;;;;;;3.70;0.55;;;12.00;99.90;;;;;;5017009;28;20036;-70
2023/12/12 11:51:33;;;;;;;4.07;1.00;;;11.90;99.90;;;;;;5000727;28;20030;-72
2023/12/12 11:54:07;;;;;;;9.07;1.08;;;11.70;99.90;;;;;;5009857;28;20079;-72
2023/12/12 11:56:33;;;;;;;6.95;1.13;;;11.60;99.90;;;;;;4995641;28;20033;-72
2023/12/12 11:59:01;;;;;;;11.45;1.55;;;11.60;99.90;;;;;;5011635;28;20197;-73
2023/12/12 12:01:26;;;;;;;6.05;1.52;;;11.50;99.90;;;;;;4996049;28;20029;-72
2023/12/12 12:03:53;;;;;;;1.58;0.73;;;11.60;99.90;;;;;;5016097;28;20056;-73
2023/12/12 12:06:19;;;;;;;6.38;0.85;;;11.50;99.90;;;;;;5002550;28;20045;-72
2023/12/12 12:08:44;;;;;;;4.47;0.63;;;11.50;99.90;;;;;;5008113;28;21340;-72
2023/12/12 12:11:11;;;;;;;2.72;0.95;;;11.40;99.90;;;;;;4998830;28;20116;-72
2023/12/12 12:13:40;;;;;;;3.03;0.90;;;11.30;99.90;;;;;;5007572;28;20059;-71
2023/12/12 12:16:08;;;;;;;8.68;1.45;;;11.30;99.90;;;;;;4998288;28;20037;-72
2023/12/12 12:18:34;;;;;;;4.15;1.58;;;11.20;99.90;;;;;;5013161;28;20091;-73
2023/12/12 12:21:04;;;;;;;11.65;1.20;;;11.20;99.90;;;;;;4997602;28;20037;-73
2023/12/12 12:23:32;;;;;;;7.63;1.90;;;11.30;99.90;;;;;;5013602;28;20045;-73
2023/12/12 12:25:59;;;;;;;8.40;1.30;;;11.30;99.90;;;;;;5008239;28;20037;-72
2023/12/12 12:28:34;;;;;;;10.05;0.88;;;11.30;99.90;;;;;;5008230;28;20041;-71
2023/12/12 12:31:00;;;;;;;6.60;0.73;;;11.30;99.90;;;;;;5010726;28;20026;-72
2023/12/12 12:33:35;;;;;;;9.40;1.85;;;11.30;99.90;;;;;;5008913;28;20461;-73
2023/12/12 12:36:01;;;;;;;6.03;0.98;;;11.40;99.90;;;;;;5019165;28;20040;-72
2023/12/12 12:38:29;;;;;;;11.35;2.05;;;11.40;99.90;;;;;;5007293;28;21743;-70
2023/12/12 12:40:55;;;;;;;11.73;1.38;;;11.40;99.90;;;;;;5017041;28;20094;-71